Time;durP1;ratioP1;P1;durP2;ratioP2;P2;SDS_P1;SDS_P2;PMS_P1;PMS_P2;Temp;Humidity;BMP_temperature;BMP_pressure;BME280_temperature;BME280_humidity;BME280_pressure;Samples;Min_cycle;Max_cycle;Signal;HPM_P1;HPM_P2
2021/05/24 00:00:23;;;;;;;10.07;1.70;;;12.90;99.90;;;;;;5134958;27;20199;-72
2021/05/24 00:02:50;;;;;;;13.68;1.88;;;12.90;99.90;;;;;;5115357;27;20200;-71
2021/05/24 00:05:21;;;;;;;6.85;2.25;;;12.90;99.90;;;;;;5134937;27;20200;-73
2021/05/24 00:07:47;;;;;;;6.72;1.83;;;12.90;99.90;;;;;;5116383;27;20539;-73
2021/05/24 00:10:27;;;;;;;7.70;1.98;;;13.00;99.90;;;;;;5098205;27;20546;-74
2021/05/24 00:12:54;;;;;;;10.60;2.22;;;12.90;99.90;;;;;;5134556;27;20179;-73
2021/05/24 00:15:25;;;;;;;8.30;1.63;;;13.00;99.90;;;;;;5131297;27;20536;-73
2021/05/24 00:17:51;;;;;;;11.50;1.80;;;13.20;99.90;;;;;;5134564;27;20163;-75
2021/05/24 00:20:18;;;;;;;3.33;1.70;;;13.20;99.90;;;;;;5114423;27;20658;-73
2021/05/24 00:22:44;;;;;;;9.38;2.03;;;13.30;99.90;;;;;;5134445;27;20168;-74
2021/05/24 00:25:11;;;;;;;7.60;2.17;;;13.30;99.90;;;;;;5134288;27;20207;-74
2021/05/24 00:27:37;;;;;;;9.18;1.80;;;13.40;99.90;;;;;;5134099;27;21006;-72
2021/05/24 00:30:04;;;;;;;17.08;2.20;;;13.40;99.90;;;;;;5115796;27;20647;-74
2021/05/24 00:32:30;;;;;;;11.43;2.10;;;13.40;99.90;;;;;;5134129;27;20211;-74
2021/05/24 00:34:56;;;;;;;13.52;2.10;;;13.40;99.90;;;;;;5116002;27;20536;-74
2021/05/24 00:37:22;;;;;;;9.73;1.88;;;13.50;99.90;;;;;;5134306;27;20172;-74
2021/05/24 00:39:49;;;;;;;5.57;1.88;;;13.50;99.90;;;;;;5133889;27;20176;-74
2021/05/24 00:42:15;;;;;;;7.75;2.00;;;13.50;99.90;;;;;;5133940;27;20642;-74
2021/05/24 00:44:41;;;;;;;7.13;2.42;;;13.50;99.90;;;;;;5133962;27;20212;-75
2021/05/24 00:47:07;;;;;;;11.50;2.33;;;13.50;99.90;;;;;;5133948;27;20177;-75
2021/05/24 00:49:33;;;;;;;7.82;2.15;;;13.60;99.90;;;;;;5133485;27;20180;-74
2021/05/24 00:51:59;;;;;;;11.23;2.15;;;13.50;99.90;;;;;;5133950;27;20180;-74
2021/05/24 00:54:26;;;;;;;11.85;2.15;;;13.60;99.90;;;;;;5133880;27;20172;-74
2021/05/24 00:56:53;;;;;;;11.13;2.25;;;13.60;99.90;;;;;;5115667;27;20164;-74
2021/05/24 00:59:19;;;;;;;10.38;2.10;;;13.70;99.90;;;;;;5133675;27;20198;-71
2021/05/24 01:01:45;;;;;;;10.65;2.15;;;13.70;99.90;;;;;;5132965;27;20168;-74
2021/05/24 01:04:14;;;;;;;12.20;2.83;;;13.70;99.90;;;;;;5115015;27;20211;-74
2021/05/24 01:06:40;;;;;;;15.95;2.80;;;13.70;99.90;;;;;;5133572;27;20536;-74
2021/05/24 01:09:06;;;;;;;9.55;2.35;;;13.70;99.90;;;;;;5133660;27;20542;-76
2021/05/24 01:11:33;;;;;;;12.00;2.33;;;13.70;99.90;;;;;;5132888;27;20174;-74
2021/05/24 01:14:00;;;;;;;14.27;3.03;;;13.70;99.90;;;;;;5115185;27;20176;-73
2021/05/24 01:16:27;;;;;;;8.23;2.20;;;13.70;99.90;;;;;;5133830;27;20168;-73
2021/05/24 01:18:53;;;;;;;10.88;2.38;;;13.80;99.90;;;;;;5133167;27;20190;-73
2021/05/24 01:21:19;;;;;;;6.00;2.03;;;13.80;99.90;;;;;;5115702;27;20530;-73
2021/05/24 01:23:46;;;;;;;12.15;1.95;;;13.90;99.90;;;;;;5114543;27;20219;-74
2021/05/24 01:26:12;;;;;;;16.67;2.42;;;13.90;99.90;;;;;;5114641;27;20172;-74
2021/05/24 01:28:39;;;;;;;11.70;2.60;;;13.90;99.90;;;;;;5132407;27;20535;-75
2021/05/24 01:31:05;;;;;;;7.50;2.30;;;13.90;99.90;;;;;;5115488;28;20520;-75
2021/05/24 01:33:33;;;;;;;16.48;3.58;;;13.90;99.90;;;;;;5113943;28;20204;-75
2021/05/24 01:36:00;;;;;;;13.70;3.15;;;13.90;99.90;;;;;;5132459;27;20210;-75
2021/05/24 01:38:26;;;;;;;14.68;2.97;;;14.00;99.90;;;;;;5114161;28;20654;-74
2021/05/24 01:40:52;;;;;;;11.98;3.10;;;13.90;99.90;;;;;;5132867;28;20184;-75
2021/05/24 01:43:19;;;;;;;20.20;3.70;;;13.90;99.90;;;;;;5133393;28;20179;-75
2021/05/24 01:45:46;;;;;;;14.02;3.03;;;13.90;99.90;;;;;;5132417;28;20216;-74
2021/05/24 01:48:12;;;;;;;17.83;3.45;;;13.90;99.90;;;;;;5114196;28;20184;-75
2021/05/24 01:50:38;;;;;;;15.48;3.22;;;13.80;99.90;;;;;;5114897;28;20187;-74
2021/05/24 01:53:04;;;;;;;16.45;3.92;;;13.90;99.90;;;;;;5114868;28;20178;-75
2021/05/24 01:55:31;;;;;;;13.95;2.83;;;13.80;99.90;;;;;;5114886;28;20176;-74
2021/05/24 01:57:57;;;;;;;12.27;3.17;;;13.80;99.90;;;;;;5132982;28;20176;-74
2021/05/24 02:00:24;;;;;;;19.73;3.45;;;13.70;99.90;;;;;;5124719;28;20176;-75
2021/05/24 02:02:51;;;;;;;14.77;3.00;;;13.70;99.90;;;;;;5137594;27;20200;-74
2021/05/24 02:05:18;;;;;;;19.52;2.95;;;13.80;99.90;;;;;;5118628;27;20206;-75
2021/05/24 02:07:44;;;;;;;6.35;3.13;;;13.70;99.90;;;;;;5100552;27;20179;-75
2021/05/24 02:10:12;;;;;;;10.77;2.92;;;13.70;99.90;;;;;;5137005;27;20199;-74
2021/05/24 02:12:39;;;;;;;14.40;2.90;;;13.70;99.90;;;;;;5136935;27;20164;-74
2021/05/24 02:15:06;;;;;;;17.50;3.63;;;13.70;99.90;;;;;;5136222;27;20195;-75
2021/05/24 02:17:32;;;;;;;17.75;2.92;;;13.70;99.90;;;;;;5118620;27;20180;-74
2021/05/24 02:19:58;;;;;;;11.40;2.92;;;13.70;99.90;;;;;;5136902;27;20175;-75
2021/05/24 02:22:25;;;;;;;8.10;2.83;;;13.80;99.90;;;;;;5118679;27;20172;-73
2021/05/24 02:24:51;;;;;;;12.32;2.90;;;13.80;99.90;;;;;;5136663;27;20211;-74
2021/05/24 02:27:17;;;;;;;9.20;2.95;;;13.80;99.90;;;;;;5136666;27;20195;-74
2021/05/24 02:29:43;;;;;;;12.02;3.08;;;13.80;99.90;;;;;;5136974;27;20183;-74
2021/05/24 02:32:09;;;;;;;9.50;2.88;;;13.80;99.90;;;;;;5136183;27;20184;-74
2021/05/24 02:34:35;;;;;;;12.52;3.00;;;13.90;99.90;;;;;;5117351;27;20218;-74
2021/05/24 02:37:02;;;;;;;10.05;3.22;;;13.90;99.90;;;;;;5117520;27;20621;-75
2021/05/24 02:39:28;;;;;;;9.45;3.20;;;14.00;99.90;;;;;;5118506;27;20620;-74
2021/05/24 02:41:54;;;;;;;13.63;3.53;;;14.00;99.90;;;;;;5136735;27;20172;-74
2021/05/24 02:44:20;;;;;;;11.73;3.25;;;14.10;99.90;;;;;;5136425;27;20212;-74
2021/05/24 02:46:46;;;;;;;9.63;3.10;;;14.10;99.90;;;;;;5117482;27;20187;-74
2021/05/24 02:49:13;;;;;;;13.18;3.63;;;14.10;99.90;;;;;;5136223;27;20180;-74
2021/05/24 02:51:39;;;;;;;9.93;3.38;;;14.20;99.90;;;;;;5136328;27;20172;-75
2021/05/24 02:54:05;;;;;;;7.47;3.20;;;14.20;99.90;;;;;;5136000;27;20191;-74
2021/05/24 02:56:31;;;;;;;14.07;3.47;;;14.30;99.90;;;;;;5117838;27;20548;-74
2021/05/24 02:58:57;;;;;;;6.82;3.60;;;14.40;99.90;;;;;;5136210;27;20168;-75
2021/05/24 03:01:26;;;;;;;9.68;3.92;;;14.40;99.90;;;;;;5117767;27;20192;-73
2021/05/24 03:03:56;;;;;;;7.75;3.53;;;14.40;99.90;;;;;;5136421;27;20679;-73
2021/05/24 03:06:22;;;;;;;12.93;3.72;;;14.50;99.90;;;;;;5136519;27;20564;-74
2021/05/24 03:08:49;;;;;;;9.63;4.10;;;14.50;99.90;;;;;;5117151;27;20176;-74
2021/05/24 03:11:16;;;;;;;19.90;4.25;;;14.50;99.90;;;;;;5135502;27;20191;-74
2021/05/24 03:13:43;;;;;;;10.38;4.97;;;14.60;99.90;;;;;;5135242;27;20172;-74
2021/05/24 03:16:09;;;;;;;14.27;4.65;;;14.60;99.90;;;;;;5134829;27;20187;-75
2021/05/24 03:18:35;;;;;;;15.63;4.70;;;14.60;99.90;;;;;;5136034;27;20179;-74
2021/05/24 03:21:01;;;;;;;18.92;4.88;;;14.70;99.90;;;;;;5134933;27;20184;-74
2021/05/24 03:23:27;;;;;;;18.80;5.93;;;14.80;99.90;;;;;;5134656;27;20535;-74
2021/05/24 03:25:53;;;;;;;12.57;5.38;;;14.90;99.90;;;;;;5116821;27;20226;-74
2021/05/24 03:28:19;;;;;;;19.27;6.20;;;14.90;99.90;;;;;;5116563;27;20180;-75
2021/05/24 03:30:45;;;;;;;11.68;5.85;;;15.10;99.90;;;;;;5116642;27;20168;-73
2021/05/24 03:33:12;;;;;;;14.05;5.70;;;15.10;99.90;;;;;;5115612;27;20683;-74
2021/05/24 03:35:38;;;;;;;18.90;5.75;;;15.20;99.90;;;;;;5134193;27;20649;-75
2021/05/24 03:38:04;;;;;;;20.00;6.40;;;15.30;99.90;;;;;;5116747;27;20180;-74
2021/05/24 03:40:30;;;;;;;19.67;6.00;;;15.40;99.90;;;;;;5135590;27;20180;-75
2021/05/24 03:42:56;;;;;;;14.82;6.68;;;15.40;99.90;;;;;;5116274;27;20180;-74
2021/05/24 03:45:23;;;;;;;17.50;6.40;;;15.50;99.90;;;;;;5134977;27;20200;-74
2021/05/24 03:47:50;;;;;;;14.15;5.70;;;15.60;99.90;;;;;;5117219;27;20172;-74
2021/05/24 03:50:16;;;;;;;15.57;6.00;;;15.70;99.90;;;;;;5134828;27;20184;-74
2021/05/24 03:52:42;;;;;;;17.33;5.45;;;15.60;99.90;;;;;;5133734;27;20191;-74
2021/05/24 03:55:09;;;;;;;18.30;6.13;;;15.60;99.90;;;;;;5135171;27;20179;-74
2021/05/24 03:57:35;;;;;;;14.30;5.25;;;15.70;99.90;;;;;;5134346;27;20643;-74
2021/05/24 04:00:04;;;;;;;12.88;6.07;;;15.80;99.90;;;;;;5134397;27;20164;-74
2021/05/24 04:02:30;;;;;;;16.13;5.75;;;15.80;99.90;;;;;;5135119;27;20200;-73
2021/05/24 04:04:57;;;;;;;13.48;5.10;;;15.90;99.90;;;;;;5134860;27;20215;-74
2021/05/24 04:07:24;;;;;;;13.85;5.53;;;15.90;99.90;;;;;;5133610;27;20528;-72
2021/05/24 04:09:50;;;;;;;16.52;5.35;;;15.90;99.90;;;;;;5132086;27;20175;-73
2021/05/24 04:12:17;;;;;;;14.38;5.38;;;15.90;99.90;;;;;;5115164;27;20195;-73
2021/05/24 04:14:43;;;;;;;17.33;6.07;;;16.00;99.90;;;;;;5116226;27;20690;-74
2021/05/24 04:17:12;;;;;;;15.63;5.05;;;16.00;99.90;;;;;;5135090;27;20165;-74
2021/05/24 04:19:41;;;;;;;17.55;5.60;;;16.00;99.90;;;;;;5134586;27;20192;-73
2021/05/24 04:22:07;;;;;;;18.65;5.40;;;16.00;99.90;;;;;;5116868;27;20167;-73
2021/05/24 04:24:33;;;;;;;7.18;4.45;;;16.10;99.90;;;;;;5133565;27;20676;-73
2021/05/24 04:26:59;;;;;;;15.25;5.82;;;16.20;99.90;;;;;;5133793;27;20180;-74
2021/05/24 04:29:25;;;;;;;10.82;5.43;;;16.20;99.90;;;;;;5133986;27;20176;-68
2021/05/24 04:31:51;;;;;;;19.48;5.53;;;16.20;99.90;;;;;;5114728;27;20224;-67
2021/05/24 04:34:17;;;;;;;18.95;5.75;;;16.20;99.90;;;;;;5134131;27;20212;-74
2021/05/24 04:36:44;;;;;;;12.48;5.60;;;16.20;99.90;;;;;;5134824;27;20175;-75
2021/05/24 04:39:10;;;;;;;11.40;5.38;;;16.30;99.90;;;;;;5134516;27;20166;-74
2021/05/24 04:41:36;;;;;;;21.23;6.93;;;16.30;99.90;;;;;;5134474;27;20184;-76
2021/05/24 04:44:18;;;;;;;15.30;6.93;;;16.30;99.90;;;;;;5116469;27;20171;-74
2021/05/24 04:46:44;;;;;;;18.00;6.30;;;16.30;99.90;;;;;;5134783;27;20564;-75
2021/05/24 04:49:10;;;;;;;18.52;6.18;;;16.40;99.90;;;;;;5116122;27;20171;-76
2021/05/24 04:51:36;;;;;;;16.10;7.13;;;16.40;99.90;;;;;;5134503;27;20168;-74
2021/05/24 04:54:04;;;;;;;12.48;6.38;;;16.30;99.90;;;;;;5144338;27;20556;-75
2021/05/24 04:56:30;;;;;;;16.73;6.05;;;16.30;99.90;;;;;;5126096;27;20526;-74
2021/05/24 04:58:56;;;;;;;13.07;5.93;;;16.40;99.90;;;;;;5142564;27;20185;-75
2021/05/24 05:01:22;;;;;;;18.15;6.57;;;16.50;99.90;;;;;;5145006;27;20171;-76
2021/05/24 05:03:48;;;;;;;21.70;7.00;;;16.40;99.90;;;;;;5118595;27;20203;-75
2021/05/24 05:06:14;;;;;;;20.50;6.15;;;16.40;99.90;;;;;;5133406;27;20215;-75
2021/05/24 05:08:40;;;;;;;18.05;6.22;;;16.40;99.90;;;;;;5134284;27;20187;-74
2021/05/24 05:11:06;;;;;;;16.92;6.75;;;16.50;99.90;;;;;;5133986;27;20167;-76
2021/05/24 05:13:33;;;;;;;19.10;6.57;;;16.50;99.90;;;;;;5133942;27;20195;-76
2021/05/24 05:15:59;;;;;;;13.23;6.38;;;16.50;99.90;;;;;;5133715;27;20187;-77
2021/05/24 05:18:25;;;;;;;16.63;6.68;;;16.60;99.90;;;;;;5133497;27;20183;-77
2021/05/24 05:20:51;;;;;;;17.10;6.55;;;16.60;99.90;;;;;;5115211;27;20172;-76
2021/05/24 05:23:17;;;;;;;16.67;6.07;;;16.60;99.90;;;;;;5133417;27;20176;-76
2021/05/24 05:25:43;;;;;;;25.80;6.72;;;16.50;99.90;;;;;;5115307;27;20200;-77
2021/05/24 05:28:10;;;;;;;13.00;5.53;;;16.50;99.90;;;;;;5133196;27;20179;-76
2021/05/24 05:30:37;;;;;;;12.15;5.72;;;16.50;99.90;;;;;;5136909;27;20631;-75
2021/05/24 05:33:03;;;;;;;10.93;4.50;;;16.50;99.90;;;;;;5143225;27;20212;-72
2021/05/24 05:35:29;;;;;;;11.63;4.72;;;16.40;99.90;;;;;;5142163;27;20164;-76
2021/05/24 05:37:55;;;;;;;15.68;4.72;;;16.40;99.90;;;;;;5121841;27;20172;-76
2021/05/24 05:40:23;;;;;;;17.23;4.85;;;16.30;99.90;;;;;;5118996;28;20180;-76
2021/05/24 05:42:49;;;;;;;8.13;4.18;;;16.30;99.90;;;;;;5133892;28;20163;-68
2021/05/24 05:45:16;;;;;;;14.25;5.00;;;16.30;99.90;;;;;;5133368;28;20303;-74
2021/05/24 05:47:45;;;;;;;13.57;4.18;;;16.20;99.90;;;;;;5133995;28;20168;-74
2021/05/24 05:50:12;;;;;;;11.98;4.25;;;16.10;99.90;;;;;;5132682;28;20663;-71
2021/05/24 05:52:38;;;;;;;15.25;4.78;;;16.10;99.90;;;;;;5114882;28;20188;-75
2021/05/24 05:55:05;;;;;;;12.80;5.10;;;16.10;99.90;;;;;;5133644;28;20182;-75
2021/05/24 05:57:31;;;;;;;8.60;4.00;;;15.90;99.90;;;;;;5114846;28;20176;-73
2021/05/24 05:59:57;;;;;;;10.80;4.38;;;16.00;99.90;;;;;;5133867;28;20186;-76
2021/05/24 06:02:23;;;;;;;11.05;4.15;;;16.00;99.90;;;;;;5132895;28;20188;-75
2021/05/24 06:04:49;;;;;;;11.57;4.22;;;16.10;99.90;;;;;;5114746;28;20222;-75
2021/05/24 06:07:16;;;;;;;16.00;3.83;;;15.90;99.90;;;;;;5133357;28;20179;-76
2021/05/24 06:09:42;;;;;;;13.55;3.85;;;16.00;99.90;;;;;;5133686;27;20172;-73
2021/05/24 06:12:09;;;;;;;7.00;3.50;;;16.00;99.90;;;;;;5138281;27;20176;-73
2021/05/24 06:14:36;;;;;;;12.02;3.90;;;15.80;99.90;;;;;;5108543;28;20187;-76
2021/05/24 06:17:03;;;;;;;8.80;3.20;;;15.80;99.90;;;;;;5114288;28;20163;-76
2021/05/24 06:19:29;;;;;;;9.98;3.65;;;15.60;99.90;;;;;;5114332;28;20183;-76
2021/05/24 06:21:55;;;;;;;9.40;3.72;;;15.70;99.90;;;;;;5132760;28;20534;-75
2021/05/24 06:24:21;;;;;;;13.23;4.07;;;15.60;99.90;;;;;;5132721;28;20180;-76
2021/05/24 06:26:47;;;;;;;12.73;3.58;;;15.60;99.90;;;;;;5132612;28;20204;-75
2021/05/24 06:29:14;;;;;;;8.82;3.78;;;15.60;99.90;;;;;;5141396;27;20198;-77
2021/05/24 06:31:42;;;;;;;11.55;4.28;;;15.50;99.90;;;;;;5139116;27;20164;-74
2021/05/24 06:34:09;;;;;;;10.85;3.50;;;15.60;99.90;;;;;;5133022;28;20216;-74
2021/05/24 06:36:35;;;;;;;10.15;3.67;;;15.80;99.90;;;;;;5132878;28;20207;-72
2021/05/24 06:39:01;;;;;;;9.57;3.50;;;16.00;99.90;;;;;;5133135;28;20173;-72
2021/05/24 06:41:27;;;;;;;10.30;3.67;;;15.90;99.90;;;;;;5114647;28;20172;-71
2021/05/24 06:43:53;;;;;;;6.82;3.33;;;15.90;99.90;;;;;;5133066;28;20664;-73
2021/05/24 06:46:19;;;;;;;9.23;3.40;;;16.10;99.90;;;;;;5111462;27;20550;-73
2021/05/24 06:48:45;;;;;;;9.10;2.88;;;16.30;99.90;;;;;;5129595;27;20180;-75
2021/05/24 06:51:11;;;;;;;7.82;2.55;;;16.10;99.90;;;;;;5118141;27;20203;-71
2021/05/24 06:53:37;;;;;;;9.80;2.97;;;15.90;99.90;;;;;;5138008;27;20171;-70
2021/05/24 06:56:04;;;;;;;7.88;3.08;;;15.90;99.90;;;;;;5117740;27;20180;-69
2021/05/24 06:58:30;;;;;;;8.98;3.20;;;15.80;99.90;;;;;;5134729;27;20172;-70
2021/05/24 07:00:56;;;;;;;8.85;2.75;;;16.00;99.90;;;;;;5135710;27;20184;-70
2021/05/24 07:03:22;;;;;;;7.63;2.40;;;16.00;99.90;;;;;;5136559;27;20207;-70
2021/05/24 07:05:48;;;;;;;6.00;2.80;;;15.70;99.90;;;;;;5136332;27;20210;-71
2021/05/24 07:08:14;;;;;;;4.72;2.40;;;15.90;99.90;;;;;;5136052;27;20199;-70
2021/05/24 07:10:40;;;;;;;9.38;2.30;;;15.90;99.90;;;;;;5142875;27;20176;-74
2021/05/24 07:13:06;;;;;;;7.72;2.10;;;15.80;99.90;;;;;;5138148;27;20180;-73
2021/05/24 07:15:33;;;;;;;7.05;2.25;;;15.50;99.90;;;;;;5145057;27;20179;-73
2021/05/24 07:17:59;;;;;;;9.00;2.20;;;15.70;99.90;;;;;;5124211;27;20188;-72
2021/05/24 07:20:25;;;;;;;11.82;2.20;;;15.60;99.90;;;;;;5145939;27;20174;-74
2021/05/24 07:22:51;;;;;;;8.48;2.13;;;15.50;99.90;;;;;;5146275;27;20183;-72
2021/05/24 07:25:17;;;;;;;11.30;3.10;;;15.20;99.90;;;;;;5145227;27;20203;-70
2021/05/24 07:27:43;;;;;;;9.25;2.22;;;15.20;99.90;;;;;;5140598;27;20176;-74
2021/05/24 07:30:10;;;;;;;11.02;2.38;;;15.20;99.90;;;;;;5142861;27;20176;-74
2021/05/24 07:32:36;;;;;;;5.60;1.80;;;14.90;99.90;;;;;;5144335;27;20179;-72
2021/05/24 07:35:03;;;;;;;5.90;2.25;;;14.90;99.90;;;;;;5143253;27;20191;-72
2021/05/24 07:37:29;;;;;;;6.10;2.20;;;14.80;99.90;;;;;;5117282;27;20172;-69
2021/05/24 07:39:55;;;;;;;4.90;1.75;;;14.70;99.90;;;;;;5135919;27;20184;-74
2021/05/24 07:42:21;;;;;;;4.78;2.00;;;14.50;99.90;;;;;;5135406;27;20685;-75
2021/05/24 07:44:47;;;;;;;8.73;2.08;;;14.40;99.90;;;;;;5135507;27;20183;-70
2021/05/24 07:47:13;;;;;;;3.90;1.10;;;14.40;99.90;;;;;;5135743;27;20219;-72
2021/05/24 07:49:39;;;;;;;8.02;1.60;;;14.30;99.90;;;;;;5135775;27;20172;-74
2021/05/24 07:52:05;;;;;;;5.72;1.85;;;14.20;99.90;;;;;;5135708;27;20527;-73
2021/05/24 07:54:31;;;;;;;4.75;1.20;;;14.20;99.90;;;;;;5135384;27;20160;-72
2021/05/24 07:56:58;;;;;;;3.33;1.20;;;14.20;99.90;;;;;;5135824;27;20195;-70
2021/05/24 07:59:24;;;;;;;6.68;1.42;;;14.20;99.90;;;;;;5135176;27;20175;-72
2021/05/24 08:01:50;;;;;;;8.48;1.42;;;14.00;99.90;;;;;;5135585;27;21204;-72
2021/05/24 08:04:16;;;;;;;3.90;0.80;;;14.20;99.90;;;;;;5134706;27;20175;-71
2021/05/24 08:06:42;;;;;;;7.45;1.73;;;14.10;99.90;;;;;;5115176;27;20202;-71
2021/05/24 08:09:08;;;;;;;4.38;1.13;;;14.10;99.90;;;;;;5141982;27;20179;-71
2021/05/24 08:11:34;;;;;;;7.43;1.33;;;14.30;99.90;;;;;;5134330;27;20180;-72
2021/05/24 08:14:01;;;;;;;9.13;1.20;;;13.70;99.90;;;;;;5133827;27;20172;-70
2021/05/24 08:16:27;;;;;;;2.03;1.00;;;14.10;99.90;;;;;;5116190;27;20172;-72
2021/05/24 08:18:53;;;;;;;6.78;1.20;;;14.10;99.90;;;;;;5134544;27;20175;-69
2021/05/24 08:21:19;;;;;;;9.38;1.45;;;13.70;99.90;;;;;;5133504;27;20608;-73
2021/05/24 08:23:45;;;;;;;7.80;1.35;;;14.00;99.90;;;;;;5142013;27;20182;-74
2021/05/24 08:26:11;;;;;;;4.78;1.23;;;13.80;99.90;;;;;;5134192;27;20222;-71
2021/05/24 08:28:38;;;;;;;7.03;1.33;;;13.90;99.90;;;;;;5116326;27;20191;-72
2021/05/24 08:31:04;;;;;;;4.65;1.30;;;13.90;99.90;;;;;;5142801;27;20183;-72
2021/05/24 08:33:31;;;;;;;10.45;1.25;;;14.00;99.90;;;;;;5122861;27;20203;-72
2021/05/24 08:35:57;;;;;;;8.77;1.60;;;14.00;99.90;;;;;;5126004;27;20532;-72
2021/05/24 08:38:23;;;;;;;2.80;0.98;;;13.60;99.90;;;;;;5135058;27;20180;-71
2021/05/24 08:40:49;;;;;;;2.83;1.27;;;13.10;99.90;;;;;;5116905;27;20200;-72
2021/05/24 08:43:16;;;;;;;8.65;1.50;;;13.10;99.90;;;;;;5137778;27;20651;-73
2021/05/24 08:45:42;;;;;;;9.52;1.58;;;13.10;99.90;;;;;;5133735;27;20215;-72
2021/05/24 08:48:09;;;;;;;7.20;1.42;;;13.20;99.90;;;;;;5133930;27;20176;-72
2021/05/24 08:50:36;;;;;;;6.65;1.70;;;13.20;99.90;;;;;;5114381;27;20187;-71
2021/05/24 08:53:04;;;;;;;3.67;1.40;;;13.40;99.90;;;;;;5115594;27;20171;-72
2021/05/24 08:55:31;;;;;;;12.18;2.08;;;13.30;99.90;;;;;;5133142;27;20164;-73
2021/05/24 08:57:57;;;;;;;7.82;2.05;;;13.70;99.90;;;;;;5133967;27;20176;-73
2021/05/24 09:00:23;;;;;;;6.43;1.65;;;13.80;99.90;;;;;;5132951;27;20556;-71
2021/05/24 09:02:54;;;;;;;5.07;1.40;;;13.50;99.90;;;;;;5137371;27;20198;-73
2021/05/24 09:05:20;;;;;;;5.65;1.52;;;13.20;99.90;;;;;;5120603;27;20167;-72
2021/05/24 09:07:53;;;;;;;5.13;1.88;;;12.90;99.90;;;;;;5124162;27;20758;-74
2021/05/24 09:10:21;;;;;;;10.75;1.60;;;12.90;99.90;;;;;;5118015;27;20196;-73
2021/05/24 09:12:47;;;;;;;6.45;1.52;;;12.70;99.90;;;;;;5122992;27;20533;-74
2021/05/24 09:15:15;;;;;;;5.53;1.55;;;12.50;99.90;;;;;;5115800;27;20532;-73
2021/05/24 09:17:42;;;;;;;4.00;1.52;;;12.50;99.90;;;;;;5132267;27;20171;-72
2021/05/24 09:20:28;;;;;;;10.20;1.58;;;12.30;99.90;;;;;;5132042;27;20734;-74
2021/05/24 09:23:31;;;;;;;4.25;1.40;;;12.60;99.90;;;;;;5115234;27;20178;-70
2021/05/24 09:26:03;;;;;;;3.53;1.60;;;12.50;99.90;;;;;;5083670;27;20219;-74
2021/05/24 09:28:42;;;;;;;9.35;1.80;;;12.30;99.90;;;;;;5133122;27;20254;-73
2021/05/24 09:31:11;;;;;;;6.35;1.75;;;12.60;99.90;;;;;;5113295;28;20617;-72
2021/05/24 09:33:38;;;;;;;7.38;1.70;;;12.50;99.90;;;;;;5120384;28;20552;-71
2021/05/24 09:36:05;;;;;;;6.80;1.60;;;13.00;99.90;;;;;;5133903;27;20643;-73
2021/05/24 09:38:36;;;;;;;7.00;1.80;;;12.70;99.90;;;;;;5133603;27;20183;-73
2021/05/24 09:41:02;;;;;;;4.28;1.65;;;12.60;99.90;;;;;;5098901;28;20167;-72
2021/05/24 09:43:34;;;;;;;5.88;1.55;;;12.70;99.90;;;;;;5115336;28;20164;-73
2021/05/24 09:46:09;;;;;;;9.02;1.73;;;13.10;99.90;;;;;;5116082;27;20208;-73
2021/05/24 09:48:35;;;;;;;4.00;1.50;;;13.30;99.90;;;;;;5136721;27;20162;-71
2021/05/24 09:51:03;;;;;;;4.60;1.55;;;13.30;99.90;;;;;;5112567;27;20192;-74
2021/05/24 09:53:29;;;;;;;7.97;2.30;;;13.40;99.90;;;;;;5138136;27;20168;-74
2021/05/24 09:56:09;;;;;;;10.82;1.92;;;13.00;99.90;;;;;;5137813;27;20167;-73
2021/05/24 09:58:35;;;;;;;51.17;6.15;;;13.30;99.90;;;;;;5141219;27;20172;-72
2021/05/24 10:01:18;;;;;;;7.90;1.90;;;13.60;99.90;;;;;;5140312;27;20172;-71
2021/05/24 10:03:46;;;;;;;5.03;1.50;;;13.80;99.90;;;;;;5135533;27;20203;-72
2021/05/24 10:06:13;;;;;;;6.88;1.50;;;14.10;99.90;;;;;;5139926;27;20199;-73
2021/05/24 10:08:40;;;;;;;3.17;1.20;;;14.10;99.90;;;;;;5139574;27;20534;-62
2021/05/24 10:11:07;;;;;;;25.83;4.25;;;14.10;99.90;;;;;;5113508;27;20180;-69
2021/05/24 10:13:33;;;;;;;9.23;1.45;;;14.30;99.90;;;;;;5134257;27;20180;-70
2021/05/24 10:16:01;;;;;;;20.02;2.05;;;14.30;99.90;;;;;;5120699;27;20521;-70
2021/05/24 10:18:28;;;;;;;9.70;1.60;;;14.30;99.90;;;;;;5139539;27;20170;-70
2021/05/24 10:20:54;;;;;;;6.60;2.10;;;14.70;99.90;;;;;;5115554;27;20178;-71
2021/05/24 10:23:21;;;;;;;5.45;1.52;;;14.80;99.90;;;;;;5128099;27;20167;-71
2021/05/24 10:25:48;;;;;;;12.07;2.10;;;14.60;99.90;;;;;;5136898;27;20196;-69
2021/05/24 10:28:14;;;;;;;5.88;1.20;;;14.80;99.90;;;;;;5110294;27;20179;-69
2021/05/24 10:30:41;;;;;;;4.95;1.50;;;14.90;99.90;;;;;;5100533;27;20184;-71
2021/05/24 10:33:12;;;;;;;5.00;1.60;;;14.80;99.90;;;;;;5118063;27;20211;-71
2021/05/24 10:35:43;;;;;;;8.25;1.60;;;14.40;99.90;;;;;;5118389;27;20180;-72
2021/05/24 10:38:36;;;;;;;4.25;1.45;;;14.40;99.90;;;;;;5136684;27;20175;-70
2021/05/24 10:41:06;;;;;;;4.53;1.83;;;14.70;99.90;;;;;;5132843;27;20187;-71
2021/05/24 10:43:48;;;;;;;9.40;2.13;;;14.80;99.90;;;;;;5117884;27;20156;-69
2021/05/24 10:46:30;;;;;;;4.22;1.70;;;15.10;99.90;;;;;;5133503;27;20220;-69
2021/05/24 10:49:25;;;;;;;7.57;2.08;;;14.80;99.90;;;;;;5129916;27;20640;-70
2021/05/24 10:52:08;;;;;;;3.88;1.40;;;14.50;99.90;;;;;;5084120;27;20647;-69
2021/05/24 10:54:36;;;;;;;7.38;1.60;;;14.30;99.90;;;;;;5135888;27;20164;-72
2021/05/24 10:57:03;;;;;;;3.97;1.13;;;14.30;99.90;;;;;;5136634;27;20168;-70
2021/05/24 10:59:41;;;;;;;7.15;1.15;;;14.30;99.90;;;;;;5136177;27;20164;-69
2021/05/24 11:02:08;;;;;;;5.43;1.48;;;14.10;99.90;;;;;;5128055;27;20554;-71
2021/05/24 11:04:46;;;;;;;7.78;1.70;;;14.00;99.90;;;;;;5132116;27;20196;-69
2021/05/24 11:07:29;;;;;;;11.93;1.88;;;14.20;99.90;;;;;;5140572;27;20207;-70
2021/05/24 11:10:14;;;;;;;5.50;1.40;;;14.40;99.90;;;;;;5121704;27;20203;-72
2021/05/24 11:12:41;;;;;;;5.00;1.02;;;14.30;99.90;;;;;;5113768;27;20189;-69
2021/05/24 11:15:08;;;;;;;14.70;1.90;;;14.50;99.90;;;;;;5128005;27;20175;-70
2021/05/24 11:18:00;;;;;;;7.70;1.80;;;14.90;99.90;;;;;;5135510;27;20534;-70
2021/05/24 11:21:02;;;;;;;4.20;1.00;;;15.40;99.90;;;;;;5131747;27;20179;-69
2021/05/24 11:23:48;;;;;;;5.20;1.00;;;16.20;99.90;;;;;;5134598;27;20178;-69
2021/05/24 11:26:28;;;;;;;2.67;0.80;;;16.50;99.90;;;;;;5116826;27;20207;-71
2021/05/24 11:28:55;;;;;;;5.90;1.88;;;16.20;99.90;;;;;;5126745;27;20160;-71
2021/05/24 11:31:31;;;;;;;14.52;2.08;;;16.30;99.90;;;;;;5144127;27;20179;-71
2021/05/24 11:33:58;;;;;;;3.40;1.10;;;16.60;99.90;;;;;;5114118;27;20223;-71
2021/05/24 11:36:47;;;;;;;1.13;0.73;;;16.40;99.90;;;;;;5135333;27;20176;-71
2021/05/24 11:39:20;;;;;;;7.35;1.13;;;15.90;99.90;;;;;;5122916;27;20189;-71
2021/05/24 11:42:07;;;;;;;3.55;0.95;;;15.90;99.90;;;;;;5127628;27;20176;-71
2021/05/24 11:44:44;;;;;;;2.90;1.10;;;15.90;99.90;;;;;;5131336;27;20164;-70
2021/05/24 11:47:11;;;;;;;3.90;1.00;;;15.80;99.90;;;;;;5116013;27;20196;-70
2021/05/24 11:49:39;;;;;;;6.30;1.05;;;16.00;99.90;;;;;;5137271;27;20167;-70
2021/05/24 11:52:07;;;;;;;3.13;1.02;;;16.10;99.90;;;;;;5141605;27;20631;-71
2021/05/24 11:54:33;;;;;;;6.07;0.80;;;16.10;99.90;;;;;;5116747;27;20176;-71
2021/05/24 11:57:01;;;;;;;5.80;0.98;;;16.30;99.90;;;;;;5119216;27;20198;-70
2021/05/24 11:59:28;;;;;;;2.00;0.85;;;16.30;99.90;;;;;;5118885;27;20507;-72
2021/05/24 12:01:55;;;;;;;6.53;0.95;;;16.30;99.90;;;;;;5099137;27;20179;-74
2021/05/24 12:04:23;;;;;;;6.03;1.10;;;16.20;99.90;;;;;;5115434;27;20168;-71
2021/05/24 12:06:58;;;;;;;2.90;0.65;;;16.00;99.90;;;;;;5126866;27;20211;-69
2021/05/24 12:09:43;;;;;;;3.65;0.80;;;15.90;99.90;;;;;;5134377;27;20197;-71
2021/05/24 12:12:38;;;;;;;4.50;0.90;;;15.80;99.90;;;;;;5116603;27;20168;-71
2021/05/24 12:15:11;;;;;;;4.72;1.60;;;15.60;99.90;;;;;;5122198;27;20167;-70
2021/05/24 12:17:38;;;;;;;4.07;0.70;;;15.80;99.90;;;;;;5122168;27;20172;-73
2021/05/24 12:20:06;;;;;;;4.57;1.10;;;15.90;99.90;;;;;;5141561;27;20179;-71
2021/05/24 12:22:34;;;;;;;4.35;0.75;;;15.90;99.90;;;;;;5143442;27;20179;-71
2021/05/24 12:25:00;;;;;;;5.00;1.20;;;15.70;99.90;;;;;;5107929;27;20176;-72
2021/05/24 12:27:27;;;;;;;3.45;0.88;;;15.80;99.90;;;;;;5134399;27;20203;-71
2021/05/24 12:30:17;;;;;;;1.13;0.65;;;15.90;99.90;;;;;;5134315;27;20164;-71
2021/05/24 12:32:53;;;;;;;4.60;1.08;;;15.90;99.90;;;;;;5124854;27;20183;-70
2021/05/24 12:35:27;;;;;;;2.80;0.93;;;16.00;99.90;;;;;;5107743;27;20183;-70
2021/05/24 12:38:48;;;;;;;3.70;1.23;;;15.90;99.90;;;;;;5116207;27;20171;-72
2021/05/24 12:40:56;;;;;;;4.70;1.00;;;16.10;99.90;;;;;;5101660;27;20539;-71
2021/05/24 12:43:23;;;;;;;6.82;1.10;;;16.30;99.90;;;;;;5133539;27;20184;-68
2021/05/24 12:45:49;;;;;;;7.07;1.58;;;16.20;99.90;;;;;;5133284;27;20179;-70
2021/05/24 12:48:19;;;;;;;7.28;1.00;;;16.30;99.90;;;;;;5126069;27;20182;-69